If you wish to contribute or participate in the discussions about articles you are invited to join SKYbrary as a registered user

 Actions

Cork

From SKYbrary Wiki

EICK /
Revision as of 16:35, 22 March 2010 by Editor1 (talk | contribs) (Created page with '{{Airport |Airport_Name=Cork |ICAO_Region=EUR |ICAO_Territory=EI |Location=Cork, Eire |Coordinates=51° 50′ 48″ N, 8° 229′ 47″ W }} __NOTOC__ =Cork Airport= ICAO: '''{{…')
(diff) ← Older revision | Latest revision (diff) | Newer revision → (diff)
Airport
ICAO: EICK
Summary
Name Cork
Region Europe
Territory Ireland IE.gif
Location Cork, Eire
Serving
Coordinates The following coordinate was not recognized: 51° 50′ 48″ N, 8° 229′ 47″ W.The following coordinate was not recognized: 51° 50′ 48″ N, 8° 229′ 47″ W.
Runways
Designator Length Width Surface ROPS
7/25 1310 m4,297.9 ft
45 m147.638 ft
PEM yes/yes
17/35 2133 m6,998.032 ft
45 m147.638 ft
ASP yes/yes


METAR
Observation EICK 032000Z 31009KT 9999 FEW018CB 00/M01 Q0984 NOSIG
Station Cork Airport
Date/Time 03 December 2020 20:00:00
Wind direction 310°
Wind speed 09 kts
Lowest cloud amount few clouds
Temperature 0°C
Dew point
Humidity 92%
QNH 984 hPa
Weather condition n/a


Cork Airport

ICAO: EICK IATA: ORK

Description

International airport serving...

Climatology

Maps

Terrain

Loading map...

Airport Layout

Loading map...

Accidents & Serious Incidents at or in vicinity of EICK